sensor_id;sensor_type;location;lat;lon;timestamp;pressure;altitude;pressure_sealevel;temperature;humidity
11878;BME280;5998;42.676;23.268;2022-07-23T00:00:12;95065.19;;;22.34;100.00
11878;BME280;5998;42.676;23.268;2022-07-23T00:02:39;95060.59;;;22.27;100.00
11878;BME280;5998;42.676;23.268;2022-07-23T00:05:06;95045.88;;;22.11;100.00
11878;BME280;5998;42.676;23.268;2022-07-23T00:07:33;95067.72;;;22.18;100.00
11878;BME280;5998;42.676;23.268;2022-07-23T00:10:00;95068.88;;;22.20;100.00
11878;BME280;5998;42.676;23.268;2022-07-23T00:12:27;95061.50;;;22.14;100.00
11878;BME280;5998;42.676;23.268;2022-07-23T00:14:54;95072.47;;;22.14;100.00
11878;BME280;5998;42.676;23.268;2022-07-23T00:17:22;95063.06;;;22.11;100.00
11878;BME280;5998;42.676;23.268;2022-07-23T00:19:49;95056.22;;;21.93;100.00
11878;BME280;5998;42.676;23.268;2022-07-23T00:22:16;95048.44;;;21.84;100.00
11878;BME280;5998;42.676;23.268;2022-07-23T00:24:42;95075.63;;;22.12;100.00
11878;BME280;5998;42.676;23.268;2022-07-23T00:27:09;95077.56;;;22.15;100.00
11878;BME280;5998;42.676;23.268;2022-07-23T00:29:36;95066.25;;;22.06;100.00
11878;BME280;5998;42.676;23.268;2022-07-23T00:32:04;95062.47;;;21.97;100.00
11878;BME280;5998;42.676;23.268;2022-07-23T00:34:32;95079.25;;;22.02;100.00
11878;BME280;5998;42.676;23.268;2022-07-23T00:36:59;95073.00;;;21.98;100.00
11878;BME280;5998;42.676;23.268;2022-07-23T00:39:26;95080.09;;;21.96;100.00
11878;BME280;5998;42.676;23.268;2022-07-23T00:41:53;95070.38;;;21.88;100.00
11878;BME280;5998;42.676;23.268;2022-07-23T00:44:22;95073.16;;;21.81;100.00
11878;BME280;5998;42.676;23.268;2022-07-23T00:46:51;95064.94;;;21.81;100.00
11878;BME280;5998;42.676;23.268;2022-07-23T00:49:19;95075.09;;;21.84;100.00
11878;BME280;5998;42.676;23.268;2022-07-23T00:51:48;95059.13;;;21.71;100.00
11878;BME280;5998;42.676;23.268;2022-07-23T00:54:17;95070.00;;;21.78;100.00
11878;BME280;5998;42.676;23.268;2022-07-23T00:56:45;95068.06;;;21.79;100.00
11878;BME280;5998;42.676;23.268;2022-07-23T00:59:13;95067.72;;;21.70;100.00
11878;BME280;5998;42.676;23.268;2022-07-23T01:01:41;95061.59;;;21.55;100.00
11878;BME280;5998;42.676;23.268;2022-07-23T01:04:09;95040.59;;;21.42;100.00
11878;BME280;5998;42.676;23.268;2022-07-23T01:06:37;95070.97;;;21.61;100.00
11878;BME280;5998;42.676;23.268;2022-07-23T01:09:07;95047.66;;;21.39;100.00
11878;BME280;5998;42.676;23.268;2022-07-23T01:11:35;95076.47;;;21.54;100.00
11878;BME280;5998;42.676;23.268;2022-07-23T01:14:11;95074.19;;;21.49;100.00
11878;BME280;5998;42.676;23.268;2022-07-23T01:16:39;95071.06;;;21.47;100.00
11878;BME280;5998;42.676;23.268;2022-07-23T01:19:06;95057.81;;;21.42;100.00
11878;BME280;5998;42.676;23.268;2022-07-23T01:21:36;95069.50;;;21.46;100.00
11878;BME280;5998;42.676;23.268;2022-07-23T01:24:06;95067.59;;;21.40;100.00
11878;BME280;5998;42.676;23.268;2022-07-23T01:26:33;95062.16;;;21.33;100.00
11878;BME280;5998;42.676;23.268;2022-07-23T01:29:01;95069.94;;;21.41;100.00
11878;BME280;5998;42.676;23.268;2022-07-23T01:31:29;95068.41;;;21.37;100.00
11878;BME280;5998;42.676;23.268;2022-07-23T01:33:57;95059.84;;;21.31;100.00
11878;BME280;5998;42.676;23.268;2022-07-23T01:36:24;95064.97;;;21.22;100.00
11878;BME280;5998;42.676;23.268;2022-07-23T01:38:51;95062.28;;;21.15;100.00
11878;BME280;5998;42.676;23.268;2022-07-23T01:41:19;95063.47;;;21.14;100.00
11878;BME280;5998;42.676;23.268;2022-07-23T01:43:46;95063.47;;;21.10;100.00
11878;BME280;5998;42.676;23.268;2022-07-23T01:46:14;95057.63;;;21.08;100.00
11878;BME280;5998;42.676;23.268;2022-07-23T01:48:41;95064.66;;;21.06;100.00
11878;BME280;5998;42.676;23.268;2022-07-23T01:51:08;95010.13;;;20.71;100.00
11878;BME280;5998;42.676;23.268;2022-07-23T01:53:35;95061.91;;;21.06;100.00
11878;BME280;5998;42.676;23.268;2022-07-23T01:56:02;95057.25;;;21.03;100.00
11878;BME280;5998;42.676;23.268;2022-07-23T01:58:30;95064.25;;;21.11;100.00
11878;BME280;5998;42.676;23.268;2022-07-23T02:00:58;95058.78;;;21.11;100.00
11878;BME280;5998;42.676;23.268;2022-07-23T02:03:25;95060.75;;;21.10;100.00
11878;BME280;5998;42.676;23.268;2022-07-23T02:05:52;95067.78;;;21.08;100.00
11878;BME280;5998;42.676;23.268;2022-07-23T02:08:19;95073.25;;;21.04;100.00
11878;BME280;5998;42.676;23.268;2022-07-23T02:10:46;95074.88;;;20.98;100.00
11878;BME280;5998;42.676;23.268;2022-07-23T02:13:14;95031.22;;;20.70;100.00
11878;BME280;5998;42.676;23.268;2022-07-23T02:15:42;95042.91;;;20.78;100.00
11878;BME280;5998;42.676;23.268;2022-07-23T02:18:09;95063.56;;;20.93;100.00
11878;BME280;5998;42.676;23.268;2022-07-23T02:20:36;95062.78;;;20.89;100.00
11878;BME280;5998;42.676;23.268;2022-07-23T02:23:05;95027.72;;;20.66;100.00
11878;BME280;5998;42.676;23.268;2022-07-23T02:25:33;95063.22;;;20.84;100.00
11878;BME280;5998;42.676;23.268;2022-07-23T02:28:00;95060.84;;;20.82;100.00
11878;BME280;5998;42.676;23.268;2022-07-23T02:30:27;95058.53;;;20.81;100.00
11878;BME280;5998;42.676;23.268;2022-07-23T02:32:56;95047.28;;;20.65;100.00
11878;BME280;5998;42.676;23.268;2022-07-23T02:35:23;95058.13;;;20.82;100.00
11878;BME280;5998;42.676;23.268;2022-07-23T02:37:50;95057.03;;;20.69;100.00
11878;BME280;5998;42.676;23.268;2022-07-23T02:40:17;95066.44;;;20.68;100.00
11878;BME280;5998;42.676;23.268;2022-07-23T02:42:44;95074.66;;;20.57;100.00
11878;BME280;5998;42.676;23.268;2022-07-23T02:45:11;95072.69;;;20.58;100.00
11878;BME280;5998;42.676;23.268;2022-07-23T02:47:38;95040.34;;;20.42;100.00
11878;BME280;5998;42.676;23.268;2022-07-23T02:50:08;95046.16;;;20.48;100.00
11878;BME280;5998;42.676;23.268;2022-07-23T02:52:36;95071.59;;;20.48;100.00
11878;BME280;5998;42.676;23.268;2022-07-23T02:55:04;95074.31;;;20.41;100.00
11878;BME280;5998;42.676;23.268;2022-07-23T02:57:31;95079.41;;;20.39;100.00
11878;BME280;5998;42.676;23.268;2022-07-23T02:59:58;95076.31;;;20.30;100.00
11878;BME280;5998;42.676;23.268;2022-07-23T03:02:25;95086.09;;;20.28;100.00
11878;BME280;5998;42.676;23.268;2022-07-23T03:04:52;95084.91;;;20.25;100.00
11878;BME280;5998;42.676;23.268;2022-07-23T03:07:21;95089.97;;;20.20;100.00
11878;BME280;5998;42.676;23.268;2022-07-23T03:09:48;95088.06;;;20.06;100.00
11878;BME280;5998;42.676;23.268;2022-07-23T03:12:15;95091.59;;;19.92;100.00
11878;BME280;5998;42.676;23.268;2022-07-23T03:14:42;95100.19;;;19.84;100.00
11878;BME280;5998;42.676;23.268;2022-07-23T03:17:09;95100.59;;;19.86;100.00
11878;BME280;5998;42.676;23.268;2022-07-23T03:19:36;95106.03;;;19.93;100.00
11878;BME280;5998;42.676;23.268;2022-07-23T03:22:03;95102.91;;;19.87;100.00
11878;BME280;5998;42.676;23.268;2022-07-23T03:24:32;95100.56;;;19.96;100.00
11878;BME280;5998;42.676;23.268;2022-07-23T03:27:13;95112.28;;;19.97;100.00
11878;BME280;5998;42.676;23.268;2022-07-23T03:29:40;95107.63;;;19.94;100.00
11878;BME280;5998;42.676;23.268;2022-07-23T03:32:07;95117.75;;;20.08;100.00
11878;BME280;5998;42.676;23.268;2022-07-23T03:34:34;95115.41;;;20.06;100.00
11878;BME280;5998;42.676;23.268;2022-07-23T03:37:01;95118.13;;;20.06;100.00
11878;BME280;5998;42.676;23.268;2022-07-23T03:39:27;95052.19;;;19.69;100.00
11878;BME280;5998;42.676;23.268;2022-07-23T03:41:56;95118.91;;;20.17;100.00
11878;BME280;5998;42.676;23.268;2022-07-23T03:44:23;95098.97;;;20.27;100.00
11878;BME280;5998;42.676;23.268;2022-07-23T03:46:50;95105.59;;;20.40;100.00
11878;BME280;5998;42.676;23.268;2022-07-23T03:49:17;95101.72;;;20.38;100.00
11878;BME280;5998;42.676;23.268;2022-07-23T03:51:44;95131.31;;;20.64;100.00
11878;BME280;5998;42.676;23.268;2022-07-23T03:54:11;95112.06;;;20.92;100.00
11878;BME280;5998;42.676;23.268;2022-07-23T03:56:38;95108.38;;;21.27;100.00
11878;BME280;5998;42.676;23.268;2022-07-23T03:59:06;95115.97;;;21.60;100.00
11878;BME280;5998;42.676;23.268;2022-07-23T04:01:33;95109.13;;;21.86;100.00
11878;BME280;5998;42.676;23.268;2022-07-23T04:04:00;95117.22;;;22.04;100.00
11878;BME280;5998;42.676;23.268;2022-07-23T04:06:27;95105.81;;;22.09;100.00
11878;BME280;5998;42.676;23.268;2022-07-23T04:08:54;95100.28;;;22.16;100.00
11878;BME280;5998;42.676;23.268;2022-07-23T04:11:21;95109.97;;;22.27;100.00
11878;BME280;5998;42.676;23.268;2022-07-23T04:13:48;95099.03;;;22.24;100.00
11878;BME280;5998;42.676;23.268;2022-07-23T04:16:16;95110.03;;;22.20;100.00
11878;BME280;5998;42.676;23.268;2022-07-23T04:18:43;95113.28;;;22.08;100.00
11878;BME280;5998;42.676;23.268;2022-07-23T04:21:10;95103.97;;;21.40;100.00
11878;BME280;5998;42.676;23.268;2022-07-23T04:23:37;95123.63;;;21.87;100.00
11878;BME280;5998;42.676;23.268;2022-07-23T04:26:04;95070.41;;;21.81;100.00
11878;BME280;5998;42.676;23.268;2022-07-23T04:28:31;95131.88;;;22.31;100.00
11878;BME280;5998;42.676;23.268;2022-07-23T04:30:59;95125.97;;;22.32;100.00
11878;BME280;5998;42.676;23.268;2022-07-23T04:33:27;95132.25;;;22.33;100.00
11878;BME280;5998;42.676;23.268;2022-07-23T04:35:54;95120.59;;;22.22;100.00
11878;BME280;5998;42.676;23.268;2022-07-23T04:38:22;95123.47;;;22.49;100.00
11878;BME280;5998;42.676;23.268;2022-07-23T04:40:49;95123.44;;;22.52;100.00
11878;BME280;5998;42.676;23.268;2022-07-23T04:43:15;95131.16;;;22.64;100.00
11878;BME280;5998;42.676;23.268;2022-07-23T04:45:42;95124.84;;;22.67;100.00
11878;BME280;5998;42.676;23.268;2022-07-23T04:48:09;95102.94;;;22.60;100.00
11878;BME280;5998;42.676;23.268;2022-07-23T04:50:37;95097.19;;;22.48;100.00
11878;BME280;5998;42.676;23.268;2022-07-23T04:53:04;95132.00;;;22.58;100.00
11878;BME280;5998;42.676;23.268;2022-07-23T04:55:31;95134.25;;;22.66;100.00
11878;BME280;5998;42.676;23.268;2022-07-23T04:57:57;95106.44;;;22.64;100.00
11878;BME280;5998;42.676;23.268;2022-07-23T05:00:24;95130.41;;;22.94;100.00
11878;BME280;5998;42.676;23.268;2022-07-23T05:02:51;95135.34;;;23.10;100.00
11878;BME280;5998;42.676;23.268;2022-07-23T05:05:18;95134.13;;;23.11;100.00
11878;BME280;5998;42.676;23.268;2022-07-23T05:07:46;95134.47;;;23.46;100.00
11878;BME280;5998;42.676;23.268;2022-07-23T05:10:12;95129.50;;;23.65;100.00
11878;BME280;5998;42.676;23.268;2022-07-23T05:12:39;95134.88;;;23.72;100.00
11878;BME280;5998;42.676;23.268;2022-07-23T05:15:06;95126.00;;;23.87;100.00
11878;BME280;5998;42.676;23.268;2022-07-23T05:17:33;95130.56;;;23.97;100.00
11878;BME280;5998;42.676;23.268;2022-07-23T05:20:00;95127.03;;;24.20;100.00
11878;BME280;5998;42.676;23.268;2022-07-23T05:22:27;95128.78;;;24.34;100.00
11878;BME280;5998;42.676;23.268;2022-07-23T05:24:55;95136.53;;;24.62;100.00
11878;BME280;5998;42.676;23.268;2022-07-23T05:27:22;95131.63;;;24.93;100.00
11878;BME280;5998;42.676;23.268;2022-07-23T05:29:48;95129.16;;;25.18;97.59
11878;BME280;5998;42.676;23.268;2022-07-23T05:32:15;95125.16;;;25.39;95.10
11878;BME280;5998;42.676;23.268;2022-07-23T05:34:42;95131.84;;;25.57;95.43
11878;BME280;5998;42.676;23.268;2022-07-23T05:37:09;95129.75;;;25.65;91.86
11878;BME280;5998;42.676;23.268;2022-07-23T05:39:35;95130.66;;;25.58;89.45
11878;BME280;5998;42.676;23.268;2022-07-23T05:42:04;95139.22;;;25.64;88.40
11878;BME280;5998;42.676;23.268;2022-07-23T05:44:31;95108.66;;;25.55;86.59
11878;BME280;5998;42.676;23.268;2022-07-23T05:46:58;95113.09;;;25.68;88.08
11878;BME280;5998;42.676;23.268;2022-07-23T05:49:25;95132.59;;;25.77;87.66
11878;BME280;5998;42.676;23.268;2022-07-23T05:51:52;95099.31;;;25.85;91.40
11878;BME280;5998;42.676;23.268;2022-07-23T05:54:19;95114.34;;;26.16;87.01
11878;BME280;5998;42.676;23.268;2022-07-23T05:56:46;95121.75;;;26.19;90.12
11878;BME280;5998;42.676;23.268;2022-07-23T05:59:14;95131.31;;;26.91;82.80
11878;BME280;5998;42.676;23.268;2022-07-23T06:01:41;95138.16;;;27.28;80.03
11878;BME280;5998;42.676;23.268;2022-07-23T06:04:08;95112.00;;;27.45;77.95
11878;BME280;5998;42.676;23.268;2022-07-23T06:06:34;95132.38;;;27.77;79.02
11878;BME280;5998;42.676;23.268;2022-07-23T06:09:01;95128.25;;;27.94;77.29
11878;BME280;5998;42.676;23.268;2022-07-23T06:11:28;95124.97;;;27.99;75.45
11878;BME280;5998;42.676;23.268;2022-07-23T06:13:55;95125.13;;;28.42;72.21
11878;BME280;5998;42.676;23.268;2022-07-23T06:16:23;95121.63;;;27.91;76.10
11878;BME280;5998;42.676;23.268;2022-07-23T06:18:50;95123.25;;;28.39;72.42
11878;BME280;5998;42.676;23.268;2022-07-23T06:21:16;95128.28;;;28.19;70.63
11878;BME280;5998;42.676;23.268;2022-07-23T06:23:43;95121.94;;;28.19;69.03
11878;BME280;5998;42.676;23.268;2022-07-23T06:26:10;95126.00;;;28.86;75.76
11878;BME280;5998;42.676;23.268;2022-07-23T06:28:37;95107.63;;;29.01;69.99
11878;BME280;5998;42.676;23.268;2022-07-23T06:31:04;95124.09;;;30.01;69.22
11878;BME280;5998;42.676;23.268;2022-07-23T06:33:33;95112.47;;;30.42;67.48
11878;BME280;5998;42.676;23.268;2022-07-23T06:36:00;95120.50;;;30.49;65.92
11878;BME280;5998;42.676;23.268;2022-07-23T06:38:26;95121.28;;;30.50;59.79
11878;BME280;5998;42.676;23.268;2022-07-23T06:40:53;95123.72;;;30.29;58.95
11878;BME280;5998;42.676;23.268;2022-07-23T06:43:20;95122.78;;;30.32;59.51
11878;BME280;5998;42.676;23.268;2022-07-23T06:45:47;95121.59;;;30.43;57.99
11878;BME280;5998;42.676;23.268;2022-07-23T06:48:13;95120.97;;;30.38;60.41
11878;BME280;5998;42.676;23.268;2022-07-23T06:50:42;95108.66;;;30.67;61.38
11878;BME280;5998;42.676;23.268;2022-07-23T06:53:08;95111.44;;;30.76;56.68
11878;BME280;5998;42.676;23.268;2022-07-23T06:55:35;95123.66;;;30.11;56.73
11878;BME280;5998;42.676;23.268;2022-07-23T06:58:04;95114.53;;;29.40;62.66
11878;BME280;5998;42.676;23.268;2022-07-23T07:00:31;95091.34;;;29.25;62.95
11878;BME280;5998;42.676;23.268;2022-07-23T07:02:58;95124.78;;;29.52;63.99
11878;BME280;5998;42.676;23.268;2022-07-23T07:05:25;95111.38;;;29.81;66.72
11878;BME280;5998;42.676;23.268;2022-07-23T07:07:54;95109.97;;;30.35;65.07
11878;BME280;5998;42.676;23.268;2022-07-23T07:10:21;95110.34;;;30.46;59.05
11878;BME280;5998;42.676;23.268;2022-07-23T07:12:48;95114.56;;;30.20;58.45
11878;BME280;5998;42.676;23.268;2022-07-23T07:15:15;95107.91;;;30.08;58.33
11878;BME280;5998;42.676;23.268;2022-07-23T07:17:42;95108.69;;;30.09;61.46
11878;BME280;5998;42.676;23.268;2022-07-23T07:20:09;95087.13;;;30.31;60.06
11878;BME280;5998;42.676;23.268;2022-07-23T07:22:36;95101.88;;;30.95;57.28
11878;BME280;5998;42.676;23.268;2022-07-23T07:25:05;95068.63;;;31.19;57.64
11878;BME280;5998;42.676;23.268;2022-07-23T07:27:32;95104.91;;;31.42;56.66
11878;BME280;5998;42.676;23.268;2022-07-23T07:29:59;95066.69;;;31.43;57.72
11878;BME280;5998;42.676;23.268;2022-07-23T07:32:26;95090.72;;;31.82;55.10
11878;BME280;5998;42.676;23.268;2022-07-23T07:34:53;95097.16;;;31.97;56.93
11878;BME280;5998;42.676;23.268;2022-07-23T07:37:20;95096.47;;;32.11;55.88
11878;BME280;5998;42.676;23.268;2022-07-23T07:39:47;95091.63;;;32.21;55.06
11878;BME280;5998;42.676;23.268;2022-07-23T07:42:15;95091.88;;;32.32;52.74
11878;BME280;5998;42.676;23.268;2022-07-23T07:44:42;95094.22;;;32.57;52.43
11878;BME280;5998;42.676;23.268;2022-07-23T07:47:09;95090.72;;;32.72;51.23
11878;BME280;5998;42.676;23.268;2022-07-23T07:49:35;95094.19;;;32.81;52.04
11878;BME280;5998;42.676;23.268;2022-07-23T07:52:02;95094.25;;;31.92;49.55
11878;BME280;5998;42.676;23.268;2022-07-23T07:54:31;95055.47;;;31.70;50.10
11878;BME280;5998;42.676;23.268;2022-07-23T07:56:58;95084.84;;;31.80;49.87
11878;BME280;5998;42.676;23.268;2022-07-23T07:59:27;95070.66;;;32.11;52.78
11878;BME280;5998;42.676;23.268;2022-07-23T08:01:54;95085.41;;;32.50;50.85
11878;BME280;5998;42.676;23.268;2022-07-23T08:04:21;95083.34;;;32.98;49.22
11878;BME280;5998;42.676;23.268;2022-07-23T08:06:48;95067.13;;;33.11;48.64
11878;BME280;5998;42.676;23.268;2022-07-23T08:09:15;95079.75;;;33.36;45.40
11878;BME280;5998;42.676;23.268;2022-07-23T08:11:42;95080.16;;;33.58;45.95
11878;BME280;5998;42.676;23.268;2022-07-23T08:14:08;95075.19;;;33.82;46.46
11878;BME280;5998;42.676;23.268;2022-07-23T08:16:38;95069.09;;;34.13;46.70
11878;BME280;5998;42.676;23.268;2022-07-23T08:19:05;95078.75;;;34.32;45.55
11878;BME280;5998;42.676;23.268;2022-07-23T08:21:32;95076.47;;;34.30;45.34
11878;BME280;5998;42.676;23.268;2022-07-23T08:23:59;95071.84;;;34.27;44.93
11878;BME280;5998;42.676;23.268;2022-07-23T08:26:25;95071.47;;;33.70;43.31
11878;BME280;5998;42.676;23.268;2022-07-23T08:28:52;95071.59;;;33.96;45.09
11878;BME280;5998;42.676;23.268;2022-07-23T08:31:19;95058.16;;;33.80;42.81
11878;BME280;5998;42.676;23.268;2022-07-23T08:33:47;95066.25;;;33.19;46.17
11878;BME280;5998;42.676;23.268;2022-07-23T08:36:14;95061.56;;;33.40;45.50
11878;BME280;5998;42.676;23.268;2022-07-23T08:38:40;95075.31;;;33.29;45.17
11878;BME280;5998;42.676;23.268;2022-07-23T08:41:08;95074.88;;;32.92;45.70
11878;BME280;5998;42.676;23.268;2022-07-23T08:43:36;95071.22;;;33.01;45.65
11878;BME280;5998;42.676;23.268;2022-07-23T08:46:03;95024.69;;;33.07;46.40
11878;BME280;5998;42.676;23.268;2022-07-23T08:48:31;95055.88;;;33.35;45.58
11878;BME280;5998;42.676;23.268;2022-07-23T08:51:02;95060.00;;;33.68;46.54
11878;BME280;5998;42.676;23.268;2022-07-23T08:53:30;95053.50;;;33.92;44.49
11878;BME280;5998;42.676;23.268;2022-07-23T08:56:00;95051.66;;;34.03;44.61
11878;BME280;5998;42.676;23.268;2022-07-23T08:58:28;95046.91;;;33.74;43.82
11878;BME280;5998;42.676;23.268;2022-07-23T09:00:55;95053.16;;;33.55;45.63
11878;BME280;5998;42.676;23.268;2022-07-23T09:03:24;95061.06;;;33.71;46.37
11878;BME280;5998;42.676;23.268;2022-07-23T09:05:52;95037.34;;;33.81;44.33
11878;BME280;5998;42.676;23.268;2022-07-23T09:08:23;95038.84;;;34.31;45.11
11878;BME280;5998;42.676;23.268;2022-07-23T09:10:52;95048.72;;;34.47;42.28
11878;BME280;5998;42.676;23.268;2022-07-23T09:13:31;95053.03;;;34.88;42.38
11878;BME280;5998;42.676;23.268;2022-07-23T09:16:00;95038.38;;;34.99;42.06
11878;BME280;5998;42.676;23.268;2022-07-23T09:18:35;95046.31;;;35.26;41.42
11878;BME280;5998;42.676;23.268;2022-07-23T09:21:19;95048.66;;;35.59;41.00
11878;BME280;5998;42.676;23.268;2022-07-23T09:23:54;95045.53;;;35.83;40.80
11878;BME280;5998;42.676;23.268;2022-07-23T09:26:30;95048.50;;;35.68;39.92
11878;BME280;5998;42.676;23.268;2022-07-23T09:29:03;95035.78;;;35.47;39.01
11878;BME280;5998;42.676;23.268;2022-07-23T09:31:41;95043.69;;;35.74;39.49
11878;BME280;5998;42.676;23.268;2022-07-23T09:34:12;95048.41;;;35.94;40.16
11878;BME280;5998;42.676;23.268;2022-07-23T09:36:40;95041.97;;;36.19;37.35
11878;BME280;5998;42.676;23.268;2022-07-23T09:39:09;95035.69;;;36.35;38.81
11878;BME280;5998;42.676;23.268;2022-07-23T09:41:39;95034.88;;;36.29;36.60
11878;BME280;5998;42.676;23.268;2022-07-23T09:44:11;95032.00;;;36.18;37.50
11878;BME280;5998;42.676;23.268;2022-07-23T09:46:39;95032.66;;;36.39;36.27
11878;BME280;5998;42.676;23.268;2022-07-23T09:49:18;95026.38;;;35.76;32.99
11878;BME280;5998;42.676;23.268;2022-07-23T09:51:47;95031.09;;;35.59;36.17
11878;BME280;5998;42.676;23.268;2022-07-23T09:54:31;95026.56;;;35.67;33.03
11878;BME280;5998;42.676;23.268;2022-07-23T09:57:01;95028.97;;;35.79;32.91
11878;BME280;5998;42.676;23.268;2022-07-23T09:59:31;95023.41;;;35.90;30.12
11878;BME280;5998;42.676;23.268;2022-07-23T10:01:59;95021.22;;;35.69;30.82
11878;BME280;5998;42.676;23.268;2022-07-23T10:04:27;95010.16;;;35.91;33.28
11878;BME280;5998;42.676;23.268;2022-07-23T10:06:56;95013.72;;;36.28;35.14
11878;BME280;5998;42.676;23.268;2022-07-23T10:09:25;94968.09;;;36.33;32.66
11878;BME280;5998;42.676;23.268;2022-07-23T10:11:58;95014.47;;;36.93;34.07
11878;BME280;5998;42.676;23.268;2022-07-23T10:14:40;95003.34;;;37.38;32.48
11878;BME280;5998;42.676;23.268;2022-07-23T10:17:07;95007.91;;;37.18;30.32
11878;BME280;5998;42.676;23.268;2022-07-23T10:19:35;94996.41;;;37.05;30.49
11878;BME280;5998;42.676;23.268;2022-07-23T10:22:04;95000.78;;;37.40;30.11
11878;BME280;5998;42.676;23.268;2022-07-23T10:24:50;94999.00;;;37.70;29.64
11878;BME280;5998;42.676;23.268;2022-07-23T10:27:32;95000.81;;;37.62;26.70
11878;BME280;5998;42.676;23.268;2022-07-23T10:30:03;94995.88;;;36.96;29.09
11878;BME280;5998;42.676;23.268;2022-07-23T10:32:40;94993.25;;;36.76;27.88
11878;BME280;5998;42.676;23.268;2022-07-23T10:35:17;94995.84;;;36.20;27.36
11878;BME280;5998;42.676;23.268;2022-07-23T10:37:47;94995.44;;;36.44;26.85
11878;BME280;5998;42.676;23.268;2022-07-23T10:40:18;94988.41;;;36.12;28.58
11878;BME280;5998;42.676;23.268;2022-07-23T10:42:48;94993.56;;;36.30;27.13
11878;BME280;5998;42.676;23.268;2022-07-23T10:45:25;94973.88;;;35.71;27.79
11878;BME280;5998;42.676;23.268;2022-07-23T10:47:53;94985.50;;;35.58;27.28
11878;BME280;5998;42.676;23.268;2022-07-23T10:50:22;94977.81;;;35.90;27.97
11878;BME280;5998;42.676;23.268;2022-07-23T10:53:08;94972.69;;;35.88;27.16
11878;BME280;5998;42.676;23.268;2022-07-23T10:55:42;94975.44;;;36.20;27.71
11878;BME280;5998;42.676;23.268;2022-07-23T10:58:11;94969.78;;;36.79;25.25
11878;BME280;5998;42.676;23.268;2022-07-23T11:00:44;94959.94;;;37.16;24.31
11878;BME280;5998;42.676;23.268;2022-07-23T11:03:30;94958.13;;;37.41;25.55
11878;BME280;5998;42.676;23.268;2022-07-23T11:06:02;94949.44;;;37.22;25.41
11878;BME280;5998;42.676;23.268;2022-07-23T11:08:29;94950.47;;;37.53;23.74
11878;BME280;5998;42.676;23.268;2022-07-23T11:11:08;94949.94;;;37.76;22.83
11878;BME280;5998;42.676;23.268;2022-07-23T11:13:45;94948.66;;;37.66;22.52
11878;BME280;5998;42.676;23.268;2022-07-23T11:16:14;94922.41;;;37.14;24.22
11878;BME280;5998;42.676;23.268;2022-07-23T11:19:06;94941.00;;;37.34;22.81
11878;BME280;5998;42.676;23.268;2022-07-23T11:21:50;94943.59;;;37.43;21.81
11878;BME280;5998;42.676;23.268;2022-07-23T11:24:22;94936.19;;;37.51;21.52
11878;BME280;5998;42.676;23.268;2022-07-23T11:26:54;94935.16;;;37.54;21.60
11878;BME280;5998;42.676;23.268;2022-07-23T11:29:45;94930.78;;;37.25;21.86
11878;BME280;5998;42.676;23.268;2022-07-23T11:32:22;94933.88;;;37.38;23.17
11878;BME280;5998;42.676;23.268;2022-07-23T11:34:51;94933.34;;;37.23;21.03
11878;BME280;5998;42.676;23.268;2022-07-23T11:37:31;94933.09;;;36.99;21.99
11878;BME280;5998;42.676;23.268;2022-07-23T11:39:59;94923.41;;;37.22;20.92
11878;BME280;5998;42.676;23.268;2022-07-23T11:42:26;94925.41;;;37.71;22.45
11878;BME280;5998;42.676;23.268;2022-07-23T11:44:54;94916.41;;;38.01;20.91
11878;BME280;5998;42.676;23.268;2022-07-23T11:47:23;94918.34;;;38.33;21.23
11878;BME280;5998;42.676;23.268;2022-07-23T11:49:53;94914.91;;;38.52;20.64
11878;BME280;5998;42.676;23.268;2022-07-23T11:52:22;94910.06;;;37.89;19.80
11878;BME280;5998;42.676;23.268;2022-07-23T11:54:50;94905.94;;;37.96;20.61
11878;BME280;5998;42.676;23.268;2022-07-23T11:57:18;94912.22;;;38.24;20.09
11878;BME280;5998;42.676;23.268;2022-07-23T11:59:46;94899.81;;;37.86;19.74
11878;BME280;5998;42.676;23.268;2022-07-23T12:02:19;94914.25;;;38.29;20.33
11878;BME280;5998;42.676;23.268;2022-07-23T12:04:49;94903.09;;;38.64;20.79
11878;BME280;5998;42.676;23.268;2022-07-23T12:07:30;94905.25;;;38.88;18.80
11878;BME280;5998;42.676;23.268;2022-07-23T12:09:59;94907.66;;;39.08;20.44
11878;BME280;5998;42.676;23.268;2022-07-23T12:12:26;94897.16;;;39.09;19.16
11878;BME280;5998;42.676;23.268;2022-07-23T12:14:55;94894.97;;;38.90;19.24
11878;BME280;5998;42.676;23.268;2022-07-23T12:17:30;94875.31;;;38.85;20.09
11878;BME280;5998;42.676;23.268;2022-07-23T12:19:57;94898.50;;;39.32;19.93
11878;BME280;5998;42.676;23.268;2022-07-23T12:22:26;94893.59;;;39.38;20.17
11878;BME280;5998;42.676;23.268;2022-07-23T12:25:00;94882.75;;;38.82;19.74
11878;BME280;5998;42.676;23.268;2022-07-23T12:27:28;94886.19;;;39.35;20.91
11878;BME280;5998;42.676;23.268;2022-07-23T12:29:55;94889.97;;;39.67;20.21
11878;BME280;5998;42.676;23.268;2022-07-23T12:32:23;94875.00;;;39.78;20.73
11878;BME280;5998;42.676;23.268;2022-07-23T12:35:04;94875.25;;;39.80;19.99
11878;BME280;5998;42.676;23.268;2022-07-23T12:37:33;94854.72;;;39.55;19.93
11878;BME280;5998;42.676;23.268;2022-07-23T12:40:19;94869.09;;;40.00;19.41
11878;BME280;5998;42.676;23.268;2022-07-23T12:42:47;94868.72;;;39.90;18.28
11878;BME280;5998;42.676;23.268;2022-07-23T12:45:14;94848.38;;;38.54;18.77
11878;BME280;5998;42.676;23.268;2022-07-23T12:48:01;94862.69;;;38.10;19.32
11878;BME280;5998;42.676;23.268;2022-07-23T12:50:50;94864.41;;;37.39;19.42
11878;BME280;5998;42.676;23.268;2022-07-23T12:53:20;94860.31;;;37.51;19.69
11878;BME280;5998;42.676;23.268;2022-07-23T12:55:47;94854.69;;;38.19;19.90
11878;BME280;5998;42.676;23.268;2022-07-23T12:58:16;94826.31;;;38.23;20.63
11878;BME280;5998;42.676;23.268;2022-07-23T13:01:00;94856.31;;;38.56;20.31
11878;BME280;5998;42.676;23.268;2022-07-23T13:03:33;94855.09;;;38.46;19.33